Pure — PB5046 — position and weather

sailwx.info

Track history (hours):
 
Tides and Currents Weather Stations Pressure Air Temp Water Temp Dewpoint Dewpoint Depression Visibility Wind Speed Wind Dir Waves Ship Positions

Pure

Last reported at 2017-Nov-08 13:23 UTC. Time now 2017-Nov-21 17:40 UTC.
Position N 53°03' E 005°24'.
Warning: this ship's position is 13 days out of date.

Length 15 m.

Type: Sailing vessel. MMSI: 244750105.

Date/timePositionNaut miles runAvg speedWind from/ knotsBaromVisibWave heightAir tempDewpointWater temp
2017-Nov-08 13:23N 53°03' E 005°24'1 2.0
2017-Nov-08 13:00N 53°03' E 005°23'2 3.8
2017-Nov-08 12:30N 53°05' E 005°20'1 1.1
2017-Nov-08 12:00N 53°05' E 005°20'3 5.6
2017-Nov-08 11:31N 53°07' E 005°17'2 4.9
2017-Nov-08 11:00N 53°08' E 005°14'4 7.2
2017-Nov-08 10:30N 53°11' E 005°09'4 7.4
2017-Nov-08 10:00N 53°15' E 005°09'4 0.3
2017-Nov-07 22:48N 53°18' E 005°06'2 5.3
2017-Nov-07 22:29N 53°19' E 005°03'3 6.5
2017-Nov-07 22:00N 53°20' E 004°59'106 6.3
2017-Nov-07 05:06N 53°55' E 007°47'1 8.6
2017-Nov-07 05:00N 53°55' E 007°49'4 7.7
2017-Nov-07 04:30N 53°56' E 007°55'4 7.0
2017-Nov-07 04:00N 53°57' E 008°00'3 6.1
2017-Nov-07 03:30N 53°58' E 008°05'4 6.7
2017-Nov-07 02:58N 53°59' E 008°11'3 7.4
2017-Nov-07 02:30N 53°59' E 008°17'3 6.7
2017-Nov-07 02:00N 53°59' E 008°23'3 5.7
2017-Nov-07 01:29N 53°58' E 008°28'2 5.1
2017-Nov-07 01:00N 53°58' E 008°32'2 4.1
2017-Nov-07 00:30N 53°58' E 008°35'2 3.3
2017-Nov-07 00:00N 53°57' E 008°38'2 3.2
2017-Nov-06 23:30N 53°56' E 008°40'2 3.8
2017-Nov-06 23:00N 53°54' E 008°41'2 4.3
2017-Nov-06 22:30N 53°53' E 008°44'3 5.3
2017-Nov-06 22:00N 53°51' E 008°47'4 7.0
2017-Nov-06 21:30N 53°51' E 008°53'4 7.9
2017-Nov-06 21:00N 53°51' E 008°59'4 8.1
2017-Nov-06 20:29N 53°53' E 009°06'37 1.3
2017-Nov-05 16:18N 53°33' E 009°59'0 0.0
2017-Nov-05 16:00N 53°33' E 009°59'0 0.0
2017-Nov-05 15:30N 53°33' E 009°59'0 0.0
2017-Nov-05 15:00N 53°33' E 009°59'0 0.0
2017-Nov-05 14:30N 53°33' E 009°59'0 0.0
2017-Nov-05 14:00N 53°33' E 009°59'0 0.0
2017-Nov-05 13:30N 53°33' E 009°59'0 0.0
2017-Nov-05 13:00N 53°33' E 009°59'0 0.0
2017-Nov-05 12:30N 53°33' E 009°59'0 0.0
2017-Nov-05 12:00N 53°33' E 009°59'0 0.0
2017-Nov-05 11:30N 53°33' E 009°59'0 0.0
2017-Nov-05 11:00N 53°33' E 009°59'0 0.0
2017-Nov-05 10:30N 53°33' E 009°59'0 0.0
2017-Nov-05 10:00N 53°33' E 009°59'0 0.0
2017-Nov-05 09:30N 53°33' E 009°59'0 0.0
2017-Nov-05 09:00N 53°33' E 009°59'0 0.0
2017-Nov-05 08:30N 53°33' E 009°59'0 0.0
2017-Nov-05 08:00N 53°33' E 009°59'0 0.0
2017-Nov-05 07:30N 53°33' E 009°59'0 0.0
2017-Nov-05 07:00N 53°33' E 009°59'0 0.0
2017-Nov-05 06:30N 53°33' E 009°59'0 0.0
2017-Nov-05 06:00N 53°33' E 009°59'0 0.0
2017-Nov-05 05:30N 53°33' E 009°59'0 0.0
2017-Nov-05 05:00N 53°33' E 009°59'0 0.0
2017-Nov-05 04:30N 53°33' E 009°59'0 0.0
2017-Nov-05 04:00N 53°33' E 009°59'0 0.0
2017-Nov-05 03:30N 53°33' E 009°59'0 0.0
2017-Nov-05 03:00N 53°33' E 009°59'0 0.0
2017-Nov-05 02:30N 53°33' E 009°59'0 0.0
2017-Nov-05 02:00N 53°33' E 009°59'0 0.0
2017-Nov-05 01:30N 53°33' E 009°59'0 0.0
2017-Nov-05 01:00N 53°33' E 009°59'0 0.0
2017-Nov-05 00:30N 53°33' E 009°59'0 0.0
2017-Nov-05 00:00N 53°33' E 009°59'0 0.0
2017-Nov-04 23:30N 53°33' E 009°59'0 0.0
2017-Nov-04 23:00N 53°33' E 009°59'0 0.0
2017-Nov-04 22:30N 53°33' E 009°59'0 0.0
2017-Nov-04 22:00N 53°33' E 009°59'0 0.0
2017-Nov-04 21:30N 53°33' E 009°59'0 0.0
2017-Nov-04 21:00N 53°33' E 009°59'0 0.0
2017-Nov-04 20:30N 53°33' E 009°59'0 0.0
2017-Nov-04 20:00N 53°33' E 009°59'0 0.0
2017-Nov-04 19:30N 53°33' E 009°59'0 0.0
2017-Nov-04 19:00N 53°33' E 009°59'0 0.0
2017-Nov-04 18:30N 53°33' E 009°59'0 0.0
2017-Nov-04 18:00N 53°33' E 009°59'0 0.0
2017-Nov-04 17:30N 53°33' E 009°59'0 0.0
2017-Nov-04 17:00N 53°33' E 009°59'0 0.0
2017-Nov-04 16:30N 53°33' E 009°59'0 0.0
2017-Nov-04 16:00N 53°33' E 009°59'0 0.0
2017-Nov-04 15:30N 53°33' E 009°59'0 0.0
2017-Nov-04 15:00N 53°33' E 009°59'0 0.0
2017-Nov-04 14:30N 53°33' E 009°59'0 0.0
2017-Nov-04 14:00N 53°33' E 009°59'0 0.0
2017-Nov-04 13:30N 53°33' E 009°59'0 0.0
2017-Nov-04 13:00N 53°33' E 009°59'0 0.0
2017-Nov-04 12:30N 53°33' E 009°59'0 0.0
2017-Nov-04 12:00N 53°33' E 009°59'0 0.0
2017-Nov-04 11:30N 53°33' E 009°59'0 0.0
2017-Nov-04 11:00N 53°33' E 009°59'0 0.0
2017-Nov-04 10:30N 53°33' E 009°59'0 0.0
2017-Nov-04 10:00N 53°33' E 009°59'0 0.0
2017-Nov-04 09:30N 53°33' E 009°59'0 0.0
2017-Nov-04 09:00N 53°33' E 009°59'0 0.0
2017-Nov-04 08:30N 53°33' E 009°59'0 0.0
2017-Nov-04 08:00N 53°33' E 009°59'0 0.0
2017-Nov-04 07:30N 53°33' E 009°59'0 0.0
2017-Nov-04 07:00N 53°33' E 009°59'0 0.0
2017-Nov-04 06:30N 53°33' E 009°59'0 0.0
2017-Nov-04 06:00N 53°33' E 009°59'0 0.0
2017-Nov-04 05:30N 53°33' E 009°59'0 0.0
2017-Nov-04 05:00N 53°33' E 009°59'0 0.0
2017-Nov-04 04:30N 53°33' E 009°59'0 0.0
2017-Nov-04 04:00N 53°33' E 009°59'0 0.0
2017-Nov-04 03:30N 53°33' E 009°59'0 0.0
2017-Nov-04 03:00N 53°33' E 009°59'0 0.0
2017-Nov-04 02:30N 53°33' E 009°59'0 0.0
2017-Nov-04 02:00N 53°33' E 009°59'0 0.0
2017-Nov-04 01:30N 53°33' E 009°59'0 0.0
2017-Nov-04 01:00N 53°33' E 009°59'0 0.0
2017-Nov-04 00:30N 53°33' E 009°59'0 0.0
2017-Nov-04 00:00N 53°33' E 009°59'0 0.0
2017-Nov-03 23:30N 53°33' E 009°59'0 0.0
2017-Nov-03 23:00N 53°33' E 009°59'0 0.0
2017-Nov-03 22:30N 53°33' E 009°59'0 0.0
2017-Nov-03 22:00N 53°33' E 009°59'0 0.0
2017-Nov-03 21:30N 53°33' E 009°59'0 0.0
2017-Nov-03 21:00N 53°33' E 009°59'0 0.0
2017-Nov-03 20:30N 53°33' E 009°59'0 0.0
2017-Nov-03 20:00N 53°33' E 009°59'0 0.0
2017-Nov-03 19:30N 53°33' E 009°59'0 0.0
2017-Nov-03 19:00N 53°33' E 009°59'0 0.0
2017-Nov-03 18:30N 53°33' E 009°59'0 0.0
2017-Nov-03 18:00N 53°33' E 009°59'0 0.0
2017-Nov-03 17:30N 53°33' E 009°59'0 0.0
2017-Nov-03 17:00N 53°33' E 009°59'0 0.0
2017-Nov-03 16:30N 53°33' E 009°59'0 0.0
2017-Nov-03 16:00N 53°33' E 009°59'0 0.0
2017-Nov-03 15:30N 53°33' E 009°59'0 0.0
2017-Nov-03 15:00N 53°33' E 009°59'0 0.0
2017-Nov-03 14:30N 53°33' E 009°59'0 0.0
2017-Nov-03 14:00N 53°33' E 009°59'0 0.0
2017-Nov-03 13:30N 53°33' E 009°59'0 0.0
2017-Nov-03 13:00N 53°33' E 009°59'0 0.0
2017-Nov-03 12:30N 53°33' E 009°59'0 0.0
2017-Nov-03 12:00N 53°33' E 009°59'0 0.0
2017-Nov-03 11:30N 53°33' E 009°59'0 0.0
2017-Nov-03 11:00N 53°33' E 009°59'0 0.0
2017-Nov-03 10:30N 53°33' E 009°59'0 0.0
2017-Nov-03 10:00N 53°33' E 009°59'0 0.0
2017-Nov-03 09:30N 53°33' E 009°59'0 0.0
2017-Nov-03 09:00N 53°33' E 009°59'0 0.0
2017-Nov-03 08:30N 53°33' E 009°59'0 0.0
2017-Nov-03 08:00N 53°33' E 009°59'0 0.0
2017-Nov-03 07:30N 53°33' E 009°59'0 0.0
2017-Nov-03 07:00N 53°33' E 009°59'0 0.0
2017-Nov-03 06:30N 53°33' E 009°59'0 0.0
2017-Nov-03 06:00N 53°33' E 009°59'0 0.0
2017-Nov-03 05:30N 53°33' E 009°59'0 0.0
2017-Nov-03 05:00N 53°33' E 009°59'0 0.0
2017-Nov-03 04:30N 53°33' E 009°59'0 0.0
2017-Nov-03 04:00N 53°33' E 009°59'0 0.0
2017-Nov-03 03:30N 53°33' E 009°59'0 0.0
2017-Nov-03 03:00N 53°33' E 009°59'0 0.0
2017-Nov-03 02:30N 53°33' E 009°59'0 0.0
2017-Nov-03 02:00N 53°33' E 009°59'0 0.0
2017-Nov-03 01:30N 53°33' E 009°59'0 0.0
2017-Nov-03 01:00N 53°33' E 009°59'0 0.0
2017-Nov-03 00:30N 53°33' E 009°59'0 0.0
2017-Nov-03 00:00N 53°33' E 009°59'0 0.0
2017-Nov-02 23:30N 53°33' E 009°59'0 0.0
2017-Nov-02 23:00N 53°33' E 009°59'0 0.0
2017-Nov-02 22:30N 53°33' E 009°59'0 0.0
2017-Nov-02 22:00N 53°33' E 009°59'0 0.0
2017-Nov-02 21:30N 53°33' E 009°59'0 0.0
2017-Nov-02 21:00N 53°33' E 009°59'0 0.0
2017-Nov-02 20:30N 53°33' E 009°59'0 0.0
2017-Nov-02 16:44N 53°33' E 009°59'0 0.0
2017-Nov-02 16:29N 53°33' E 009°59'0 0.0
2017-Nov-02 15:59N 53°33' E 009°59'0 0.0
2017-Nov-02 15:29N 53°33' E 009°59'0 0.0
2017-Nov-02 14:59N 53°33' E 009°59'0 0.0
2017-Nov-02 14:29N 53°33' E 009°59'0 0.0
2017-Nov-02 13:59N 53°33' E 009°59'0 0.0
2017-Nov-02 13:29N 53°33' E 009°59'0 0.0
2017-Nov-02 12:59N 53°33' E 009°59'0 0.0
2017-Nov-02 12:29N 53°33' E 009°59'0 0.0
2017-Nov-02 11:59N 53°33' E 009°59'0 0.0
2017-Nov-02 11:29N 53°33' E 009°59'0 0.0
2017-Nov-02 10:59N 53°33' E 009°59'0 0.0
2017-Nov-02 10:29N 53°33' E 009°59'0 0.0
2017-Nov-02 09:59N 53°33' E 009°59'0 0.0
2017-Nov-02 09:29N 53°33' E 009°59'0 0.0
2017-Nov-02 08:59N 53°33' E 009°59'0 0.0
2017-Nov-02 08:29N 53°33' E 009°59'0 0.0
2017-Nov-02 07:59N 53°33' E 009°59'0 0.0
2017-Nov-02 07:29N 53°33' E 009°59'0 0.0
2017-Nov-02 06:59N 53°33' E 009°59'0 0.0
2017-Nov-02 06:29N 53°33' E 009°59'0 0.0
2017-Nov-02 05:59N 53°33' E 009°59'0 0.0
2017-Nov-02 05:29N 53°33' E 009°59'0 0.0
2017-Nov-02 04:59N 53°33' E 009°59'0 0.0
2017-Nov-02 04:29N 53°33' E 009°59'0 0.0
2017-Nov-02 03:59N 53°33' E 009°59'0 0.0
2017-Nov-02 03:29N 53°33' E 009°59'0 0.0
2017-Nov-02 02:59N 53°33' E 009°59'0 0.0
2017-Nov-02 02:29N 53°33' E 009°59'0 0.0
2017-Nov-02 01:59N 53°33' E 009°59'0 0.0
2017-Nov-02 01:29N 53°33' E 009°59'0 0.0
2017-Nov-02 00:59N 53°33' E 009°59'0 0.0
2017-Nov-02 00:29N 53°33' E 009°59'0 0.0
2017-Nov-01 23:59N 53°33' E 009°59'0 0.0
2017-Nov-01 23:29N 53°33' E 009°59'0 0.0
2017-Nov-01 22:59N 53°33' E 009°59'0 0.0
2017-Nov-01 22:29N 53°33' E 009°59'0 0.0
2017-Nov-01 21:59N 53°33' E 009°59'0 0.0
2017-Nov-01 21:29N 53°33' E 009°59'0 0.0
2017-Nov-01 20:59N 53°33' E 009°59'0 0.0
2017-Nov-01 20:29N 53°33' E 009°59'0 0.0
2017-Nov-01 19:59N 53°33' E 009°59'0 0.0
2017-Nov-01 19:29N 53°33' E 009°59'0 0.0
2017-Nov-01 18:59N 53°33' E 009°59'0 0.0
2017-Nov-01 18:29N 53°33' E 009°59'0 0.0
2017-Nov-01 01:59N 53°33' E 009°59'0 0.0
2017-Nov-01 01:29N 53°33' E 009°59'0 0.0
2017-Nov-01 00:59N 53°33' E 009°59'0 0.0
2017-Nov-01 00:29N 53°33' E 009°59'0 0.0
2017-Oct-31 23:59N 53°33' E 009°59'0 0.0
2017-Oct-31 23:29N 53°33' E 009°59'0 0.0
2017-Oct-31 22:59N 53°33' E 009°59'0 0.0
2017-Oct-31 22:29N 53°33' E 009°59'0 0.0
2017-Oct-31 21:59N 53°33' E 009°59'0 0.0
2017-Oct-31 21:29N 53°33' E 009°59'0 0.0
2017-Oct-31 20:59N 53°33' E 009°59'0 0.0
2017-Oct-31 20:29N 53°33' E 009°59'0 0.0
2017-Oct-31 19:59N 53°33' E 009°59'0 0.0
2017-Oct-31 19:29N 53°33' E 009°59'0 0.0
2017-Oct-31 18:59N 53°33' E 009°59'0 0.0
2017-Oct-31 18:29N 53°33' E 009°59'0 0.0
2017-Oct-31 17:59N 53°33' E 009°59'0 0.0
2017-Oct-31 17:29N 53°33' E 009°59'0 0.0
2017-Oct-31 16:59N 53°33' E 009°59'0 0.0
2017-Oct-31 16:29N 53°33' E 009°59'0 0.0
2017-Oct-31 15:59N 53°33' E 009°59'0 0.0
2017-Oct-31 15:29N 53°33' E 009°59'0 0.0
2017-Oct-31 14:59N 53°33' E 009°59'0 0.0
2017-Oct-31 14:29N 53°33' E 009°59'0 0.0
2017-Oct-31 13:59N 53°33' E 009°59'0 0.0
2017-Oct-31 13:29N 53°33' E 009°59'0 0.0
2017-Oct-31 12:59N 53°33' E 009°59'0 0.0
2017-Oct-31 12:29N 53°33' E 009°59'0 0.0
2017-Oct-31 11:59N 53°33' E 009°59'0 0.0
2017-Oct-31 11:29N 53°33' E 009°59'0 0.0
2017-Oct-31 10:59N 53°33' E 009°59'0 0.0
2017-Oct-31 10:29N 53°33' E 009°59'0 0.0
2017-Oct-31 09:59N 53°33' E 009°59'0 0.0
2017-Oct-31 09:29N 53°33' E 009°59'0 0.0
2017-Oct-31 08:59N 53°33' E 009°59'0 0.0
2017-Oct-31 08:29N 53°33' E 009°59'0 0.0
2017-Oct-31 07:59N 53°33' E 009°59'0 0.0
2017-Oct-31 07:29N 53°33' E 009°59'0 0.0
2017-Oct-31 06:59N 53°33' E 009°59'0 0.0
2017-Oct-31 06:29N 53°33' E 009°59'0 0.0
2017-Oct-31 05:59N 53°33' E 009°59'0 0.0
2017-Oct-31 05:29N 53°33' E 009°59'0 0.0
2017-Oct-31 04:59N 53°33' E 009°59'0 0.0
2017-Oct-31 04:29N 53°33' E 009°59'0 0.0
2017-Oct-31 03:59N 53°33' E 009°59'0 0.0
2017-Oct-31 03:29N 53°33' E 009°59'0 0.0
2017-Oct-31 02:59N 53°33' E 009°59'0 0.0
2017-Oct-31 02:29N 53°33' E 009°59'0 0.0
2017-Oct-31 01:59N 53°33' E 009°59'0 0.0
2017-Oct-31 01:29N 53°33' E 009°59'0 0.0
2017-Oct-31 00:59N 53°33' E 009°59'0 0.0
2017-Oct-31 00:29N 53°33' E 009°59'0 0.0
2017-Oct-30 23:59N 53°33' E 009°59'0 0.0
2017-Oct-30 23:26N 53°33' E 009°59'0 0.0
2017-Oct-30 22:59N 53°33' E 009°59'0 0.0
2017-Oct-30 22:29N 53°33' E 009°59'0 0.0
2017-Oct-30 21:59N 53°33' E 009°59'0 0.0
2017-Oct-30 21:29N 53°33' E 009°59'0 0.0
2017-Oct-30 21:00N 53°33' E 009°59'0 0.0
2017-Oct-30 20:29N 53°33' E 009°59'0 0.0
2017-Oct-30 19:59N 53°33' E 009°59'0 0.0
2017-Oct-30 19:29N 53°33' E 009°59'0 0.0
2017-Oct-30 18:59N 53°33' E 009°59'0 0.0
2017-Oct-30 18:30N 53°33' E 009°59'0 0.0
2017-Oct-30 17:59N 53°33' E 009°59'0 0.0
2017-Oct-30 17:29N 53°33' E 009°59'0 0.0
2017-Oct-30 17:00N 53°33' E 009°59'0 0.0
2017-Oct-30 16:29N 53°33' E 009°59'0 0.0
2017-Oct-30 16:00N 53°33' E 009°59'0 0.0
2017-Oct-30 15:30N 53°33' E 009°59'0 0.0
2017-Oct-30 14:59N 53°33' E 009°59'0 0.0
2017-Oct-30 13:59N 53°33' E 009°59'0 0.0
2017-Oct-30 13:29N 53°33' E 009°59'0 0.0
2017-Oct-30 13:00N 53°33' E 009°59'0 0.0
2017-Oct-30 12:30N 53°33' E 009°59'0 0.0
2017-Oct-30 12:00N 53°33' E 009°59'0 0.0
2017-Oct-30 11:30N 53°33' E 009°59'0 0.0
2017-Oct-30 11:00N 53°33' E 009°59'0 0.0
2017-Oct-30 10:30N 53°33' E 009°59'0 0.0
2017-Oct-30 09:59N 53°33' E 009°59'0 0.0
2017-Oct-30 09:29N 53°33' E 009°59'0 0.0
2017-Oct-30 09:00N 53°33' E 009°59'  
Track history (hours):
 
Tides and Currents Weather Stations Pressure Air Temp Water Temp Dewpoint Dewpoint Depression Visibility Wind Speed Wind Dir Waves Ship Positions

Pure

Last reported at 2017-Nov-08 13:23 UTC. Time now 2017-Nov-21 17:40 UTC.
Position N 53°03' E 005°24'.
Warning: this ship's position is 13 days out of date.

Length 15 m.

Type: Sailing vessel. MMSI: 244750105.

Date/timePositionNaut miles runAvg speedWind from/ knotsBaromVisibWave heightAir tempDewpointWater temp
2017-Nov-08 13:23N 53°03' E 005°24'1 2.0
2017-Nov-08 13:00N 53°03' E 005°23'2 3.8
2017-Nov-08 12:30N 53°05' E 005°20'1 1.1
2017-Nov-08 12:00N 53°05' E 005°20'3 5.6
2017-Nov-08 11:31N 53°07' E 005°17'2 4.9
2017-Nov-08 11:00N 53°08' E 005°14'4 7.2
2017-Nov-08 10:30N 53°11' E 005°09'4 7.4
2017-Nov-08 10:00N 53°15' E 005°09'4 0.3
2017-Nov-07 22:48N 53°18' E 005°06'2 5.3
2017-Nov-07 22:29N 53°19' E 005°03'3 6.5
2017-Nov-07 22:00N 53°20' E 004°59'106 6.3
2017-Nov-07 05:06N 53°55' E 007°47'1 8.6
2017-Nov-07 05:00N 53°55' E 007°49'4 7.7
2017-Nov-07 04:30N 53°56' E 007°55'4 7.0
2017-Nov-07 04:00N 53°57' E 008°00'3 6.1
2017-Nov-07 03:30N 53°58' E 008°05'4 6.7
2017-Nov-07 02:58N 53°59' E 008°11'3 7.4
2017-Nov-07 02:30N 53°59' E 008°17'3 6.7
2017-Nov-07 02:00N 53°59' E 008°23'3 5.7
2017-Nov-07 01:29N 53°58' E 008°28'2 5.1
2017-Nov-07 01:00N 53°58' E 008°32'2 4.1
2017-Nov-07 00:30N 53°58' E 008°35'2 3.3
2017-Nov-07 00:00N 53°57' E 008°38'2 3.2
2017-Nov-06 23:30N 53°56' E 008°40'2 3.8
2017-Nov-06 23:00N 53°54' E 008°41'2 4.3
2017-Nov-06 22:30N 53°53' E 008°44'3 5.3
2017-Nov-06 22:00N 53°51' E 008°47'4 7.0
2017-Nov-06 21:30N 53°51' E 008°53'4 7.9
2017-Nov-06 21:00N 53°51' E 008°59'4 8.1
2017-Nov-06 20:29N 53°53' E 009°06'37 1.3
2017-Nov-05 16:18N 53°33' E 009°59'0 0.0
2017-Nov-05 16:00N 53°33' E 009°59'0 0.0
2017-Nov-05 15:30N 53°33' E 009°59'0 0.0
2017-Nov-05 15:00N 53°33' E 009°59'0 0.0
2017-Nov-05 14:30N 53°33' E 009°59'0 0.0
2017-Nov-05 14:00N 53°33' E 009°59'0 0.0
2017-Nov-05 13:30N 53°33' E 009°59'0 0.0
2017-Nov-05 13:00N 53°33' E 009°59'0 0.0
2017-Nov-05 12:30N 53°33' E 009°59'0 0.0
2017-Nov-05 12:00N 53°33' E 009°59'0 0.0
2017-Nov-05 11:30N 53°33' E 009°59'0 0.0
2017-Nov-05 11:00N 53°33' E 009°59'0 0.0
2017-Nov-05 10:30N 53°33' E 009°59'0 0.0
2017-Nov-05 10:00N 53°33' E 009°59'0 0.0
2017-Nov-05 09:30N 53°33' E 009°59'0 0.0
2017-Nov-05 09:00N 53°33' E 009°59'0 0.0
2017-Nov-05 08:30N 53°33' E 009°59'0 0.0
2017-Nov-05 08:00N 53°33' E 009°59'0 0.0
2017-Nov-05 07:30N 53°33' E 009°59'0 0.0
2017-Nov-05 07:00N 53°33' E 009°59'0 0.0
2017-Nov-05 06:30N 53°33' E 009°59'0 0.0
2017-Nov-05 06:00N 53°33' E 009°59'0 0.0
2017-Nov-05 05:30N 53°33' E 009°59'0 0.0
2017-Nov-05 05:00N 53°33' E 009°59'0 0.0
2017-Nov-05 04:30N 53°33' E 009°59'0 0.0
2017-Nov-05 04:00N 53°33' E 009°59'0 0.0
2017-Nov-05 03:30N 53°33' E 009°59'0 0.0
2017-Nov-05 03:00N 53°33' E 009°59'0 0.0
2017-Nov-05 02:30N 53°33' E 009°59'0 0.0
2017-Nov-05 02:00N 53°33' E 009°59'0 0.0
2017-Nov-05 01:30N 53°33' E 009°59'0 0.0
2017-Nov-05 01:00N 53°33' E 009°59'0 0.0
2017-Nov-05 00:30N 53°33' E 009°59'0 0.0
2017-Nov-05 00:00N 53°33' E 009°59'0 0.0
2017-Nov-04 23:30N 53°33' E 009°59'0 0.0
2017-Nov-04 23:00N 53°33' E 009°59'0 0.0
2017-Nov-04 22:30N 53°33' E 009°59'0 0.0
2017-Nov-04 22:00N 53°33' E 009°59'0 0.0
2017-Nov-04 21:30N 53°33' E 009°59'0 0.0
2017-Nov-04 21:00N 53°33' E 009°59'0 0.0
2017-Nov-04 20:30N 53°33' E 009°59'0 0.0
2017-Nov-04 20:00N 53°33' E 009°59'0 0.0
2017-Nov-04 19:30N 53°33' E 009°59'0 0.0
2017-Nov-04 19:00N 53°33' E 009°59'0 0.0
2017-Nov-04 18:30N 53°33' E 009°59'0 0.0
2017-Nov-04 18:00N 53°33' E 009°59'0 0.0
2017-Nov-04 17:30N 53°33' E 009°59'0 0.0
2017-Nov-04 17:00N 53°33' E 009°59'0 0.0
2017-Nov-04 16:30N 53°33' E 009°59'0 0.0
2017-Nov-04 16:00N 53°33' E 009°59'0 0.0
2017-Nov-04 15:30N 53°33' E 009°59'0 0.0
2017-Nov-04 15:00N 53°33' E 009°59'0 0.0
2017-Nov-04 14:30N 53°33' E 009°59'0 0.0
2017-Nov-04 14:00N 53°33' E 009°59'0 0.0
2017-Nov-04 13:30N 53°33' E 009°59'0 0.0
2017-Nov-04 13:00N 53°33' E 009°59'0 0.0
2017-Nov-04 12:30N 53°33' E 009°59'0 0.0
2017-Nov-04 12:00N 53°33' E 009°59'0 0.0
2017-Nov-04 11:30N 53°33' E 009°59'0 0.0
2017-Nov-04 11:00N 53°33' E 009°59'0 0.0
2017-Nov-04 10:30N 53°33' E 009°59'0 0.0
2017-Nov-04 10:00N 53°33' E 009°59'0 0.0
2017-Nov-04 09:30N 53°33' E 009°59'0 0.0
2017-Nov-04 09:00N 53°33' E 009°59'0 0.0
2017-Nov-04 08:30N 53°33' E 009°59'0 0.0
2017-Nov-04 08:00N 53°33' E 009°59'0 0.0
2017-Nov-04 07:30N 53°33' E 009°59'0 0.0
2017-Nov-04 07:00N 53°33' E 009°59'0 0.0
2017-Nov-04 06:30N 53°33' E 009°59'0 0.0
2017-Nov-04 06:00N 53°33' E 009°59'0 0.0
2017-Nov-04 05:30N 53°33' E 009°59'0 0.0
2017-Nov-04 05:00N 53°33' E 009°59'0 0.0
2017-Nov-04 04:30N 53°33' E 009°59'0 0.0
2017-Nov-04 04:00N 53°33' E 009°59'0 0.0
2017-Nov-04 03:30N 53°33' E 009°59'0 0.0
2017-Nov-04 03:00N 53°33' E 009°59'0 0.0
2017-Nov-04 02:30N 53°33' E 009°59'0 0.0
2017-Nov-04 02:00N 53°33' E 009°59'0 0.0
2017-Nov-04 01:30N 53°33' E 009°59'0 0.0
2017-Nov-04 01:00N 53°33' E 009°59'0 0.0
2017-Nov-04 00:30N 53°33' E 009°59'0 0.0
2017-Nov-04 00:00N 53°33' E 009°59'0 0.0
2017-Nov-03 23:30N 53°33' E 009°59'0 0.0
2017-Nov-03 23:00N 53°33' E 009°59'0 0.0
2017-Nov-03 22:30N 53°33' E 009°59'0 0.0
2017-Nov-03 22:00N 53°33' E 009°59'0 0.0
2017-Nov-03 21:30N 53°33' E 009°59'0 0.0
2017-Nov-03 21:00N 53°33' E 009°59'0 0.0
2017-Nov-03 20:30N 53°33' E 009°59'0 0.0
2017-Nov-03 20:00N 53°33' E 009°59'0 0.0
2017-Nov-03 19:30N 53°33' E 009°59'0 0.0
2017-Nov-03 19:00N 53°33' E 009°59'0 0.0
2017-Nov-03 18:30N 53°33' E 009°59'0 0.0
2017-Nov-03 18:00N 53°33' E 009°59'0 0.0
2017-Nov-03 17:30N 53°33' E 009°59'0 0.0
2017-Nov-03 17:00N 53°33' E 009°59'0 0.0
2017-Nov-03 16:30N 53°33' E 009°59'0 0.0
2017-Nov-03 16:00N 53°33' E 009°59'0 0.0
2017-Nov-03 15:30N 53°33' E 009°59'0 0.0
2017-Nov-03 15:00N 53°33' E 009°59'0 0.0
2017-Nov-03 14:30N 53°33' E 009°59'0 0.0
2017-Nov-03 14:00N 53°33' E 009°59'0 0.0
2017-Nov-03 13:30N 53°33' E 009°59'0 0.0
2017-Nov-03 13:00N 53°33' E 009°59'0 0.0
2017-Nov-03 12:30N 53°33' E 009°59'0 0.0
2017-Nov-03 12:00N 53°33' E 009°59'0 0.0
2017-Nov-03 11:30N 53°33' E 009°59'0 0.0
2017-Nov-03 11:00N 53°33' E 009°59'0 0.0
2017-Nov-03 10:30N 53°33' E 009°59'0 0.0
2017-Nov-03 10:00N 53°33' E 009°59'0 0.0
2017-Nov-03 09:30N 53°33' E 009°59'0 0.0
2017-Nov-03 09:00N 53°33' E 009°59'0 0.0
2017-Nov-03 08:30N 53°33' E 009°59'0 0.0
2017-Nov-03 08:00N 53°33' E 009°59'0 0.0
2017-Nov-03 07:30N 53°33' E 009°59'0 0.0
2017-Nov-03 07:00N 53°33' E 009°59'0 0.0
2017-Nov-03 06:30N 53°33' E 009°59'0 0.0
2017-Nov-03 06:00N 53°33' E 009°59'0 0.0
2017-Nov-03 05:30N 53°33' E 009°59'0 0.0
2017-Nov-03 05:00N 53°33' E 009°59'0 0.0
2017-Nov-03 04:30N 53°33' E 009°59'0 0.0
2017-Nov-03 04:00N 53°33' E 009°59'0 0.0
2017-Nov-03 03:30N 53°33' E 009°59'0 0.0
2017-Nov-03 03:00N 53°33' E 009°59'0 0.0
2017-Nov-03 02:30N 53°33' E 009°59'0 0.0
2017-Nov-03 02:00N 53°33' E 009°59'0 0.0
2017-Nov-03 01:30N 53°33' E 009°59'0 0.0
2017-Nov-03 01:00N 53°33' E 009°59'0 0.0
2017-Nov-03 00:30N 53°33' E 009°59'0 0.0
2017-Nov-03 00:00N 53°33' E 009°59'0 0.0
2017-Nov-02 23:30N 53°33' E 009°59'0 0.0
2017-Nov-02 23:00N 53°33' E 009°59'0 0.0
2017-Nov-02 22:30N 53°33' E 009°59'0 0.0
2017-Nov-02 22:00N 53°33' E 009°59'0 0.0
2017-Nov-02 21:30N 53°33' E 009°59'0 0.0
2017-Nov-02 21:00N 53°33' E 009°59'0 0.0
2017-Nov-02 20:30N 53°33' E 009°59'0 0.0
2017-Nov-02 16:44N 53°33' E 009°59'0 0.0
2017-Nov-02 16:29N 53°33' E 009°59'0 0.0
2017-Nov-02 15:59N 53°33' E 009°59'0 0.0
2017-Nov-02 15:29N 53°33' E 009°59'0 0.0
2017-Nov-02 14:59N 53°33' E 009°59'0 0.0
2017-Nov-02 14:29N 53°33' E 009°59'0 0.0
2017-Nov-02 13:59N 53°33' E 009°59'0 0.0
2017-Nov-02 13:29N 53°33' E 009°59'0 0.0
2017-Nov-02 12:59N 53°33' E 009°59'0 0.0
2017-Nov-02 12:29N 53°33' E 009°59'0 0.0
2017-Nov-02 11:59N 53°33' E 009°59'0 0.0
2017-Nov-02 11:29N 53°33' E 009°59'0 0.0
2017-Nov-02 10:59N 53°33' E 009°59'0 0.0
2017-Nov-02 10:29N 53°33' E 009°59'0 0.0
2017-Nov-02 09:59N 53°33' E 009°59'0 0.0
2017-Nov-02 09:29N 53°33' E 009°59'0 0.0
2017-Nov-02 08:59N 53°33' E 009°59'0 0.0
2017-Nov-02 08:29N 53°33' E 009°59'0 0.0
2017-Nov-02 07:59N 53°33' E 009°59'0 0.0
2017-Nov-02 07:29N 53°33' E 009°59'0 0.0
2017-Nov-02 06:59N 53°33' E 009°59'0 0.0
2017-Nov-02 06:29N 53°33' E 009°59'0 0.0
2017-Nov-02 05:59N 53°33' E 009°59'0 0.0
2017-Nov-02 05:29N 53°33' E 009°59'0 0.0
2017-Nov-02 04:59N 53°33' E 009°59'0 0.0
2017-Nov-02 04:29N 53°33' E 009°59'0 0.0
2017-Nov-02 03:59N 53°33' E 009°59'0 0.0
2017-Nov-02 03:29N 53°33' E 009°59'0 0.0
2017-Nov-02 02:59N 53°33' E 009°59'0 0.0
2017-Nov-02 02:29N 53°33' E 009°59'0 0.0
2017-Nov-02 01:59N 53°33' E 009°59'0 0.0
2017-Nov-02 01:29N 53°33' E 009°59'0 0.0
2017-Nov-02 00:59N 53°33' E 009°59'0 0.0
2017-Nov-02 00:29N 53°33' E 009°59'0 0.0
2017-Nov-01 23:59N 53°33' E 009°59'0 0.0
2017-Nov-01 23:29N 53°33' E 009°59'0 0.0
2017-Nov-01 22:59N 53°33' E 009°59'0 0.0
2017-Nov-01 22:29N 53°33' E 009°59'0 0.0
2017-Nov-01 21:59N 53°33' E 009°59'0 0.0
2017-Nov-01 21:29N 53°33' E 009°59'0 0.0
2017-Nov-01 20:59N 53°33' E 009°59'0 0.0
2017-Nov-01 20:29N 53°33' E 009°59'0 0.0
2017-Nov-01 19:59N 53°33' E 009°59'0 0.0
2017-Nov-01 19:29N 53°33' E 009°59'0 0.0
2017-Nov-01 18:59N 53°33' E 009°59'0 0.0
2017-Nov-01 18:29N 53°33' E 009°59'0 0.0
2017-Nov-01 01:59N 53°33' E 009°59'0 0.0
2017-Nov-01 01:29N 53°33' E 009°59'0 0.0
2017-Nov-01 00:59N 53°33' E 009°59'0 0.0
2017-Nov-01 00:29N 53°33' E 009°59'0 0.0
2017-Oct-31 23:59N 53°33' E 009°59'0 0.0
2017-Oct-31 23:29N 53°33' E 009°59'0 0.0
2017-Oct-31 22:59N 53°33' E 009°59'0 0.0
2017-Oct-31 22:29N 53°33' E 009°59'0 0.0
2017-Oct-31 21:59N 53°33' E 009°59'0 0.0
2017-Oct-31 21:29N 53°33' E 009°59'0 0.0
2017-Oct-31 20:59N 53°33' E 009°59'0 0.0
2017-Oct-31 20:29N 53°33' E 009°59'0 0.0
2017-Oct-31 19:59N 53°33' E 009°59'0 0.0
2017-Oct-31 19:29N 53°33' E 009°59'0 0.0
2017-Oct-31 18:59N 53°33' E 009°59'0 0.0
2017-Oct-31 18:29N 53°33' E 009°59'0 0.0
2017-Oct-31 17:59N 53°33' E 009°59'0 0.0
2017-Oct-31 17:29N 53°33' E 009°59'0 0.0
2017-Oct-31 16:59N 53°33' E 009°59'0 0.0
2017-Oct-31 16:29N 53°33' E 009°59'0 0.0
2017-Oct-31 15:59N 53°33' E 009°59'0 0.0
2017-Oct-31 15:29N 53°33' E 009°59'0 0.0
2017-Oct-31 14:59N 53°33' E 009°59'0 0.0
2017-Oct-31 14:29N 53°33' E 009°59'0 0.0
2017-Oct-31 13:59N 53°33' E 009°59'0 0.0
2017-Oct-31 13:29N 53°33' E 009°59'0 0.0
2017-Oct-31 12:59N 53°33' E 009°59'0 0.0
2017-Oct-31 12:29N 53°33' E 009°59'0 0.0
2017-Oct-31 11:59N 53°33' E 009°59'0 0.0
2017-Oct-31 11:29N 53°33' E 009°59'0 0.0
2017-Oct-31 10:59N 53°33' E 009°59'0 0.0
2017-Oct-31 10:29N 53°33' E 009°59'0 0.0
2017-Oct-31 09:59N 53°33' E 009°59'0 0.0
2017-Oct-31 09:29N 53°33' E 009°59'0 0.0
2017-Oct-31 08:59N 53°33' E 009°59'0 0.0
2017-Oct-31 08:29N 53°33' E 009°59'0 0.0
2017-Oct-31 07:59N 53°33' E 009°59'0 0.0
2017-Oct-31 07:29N 53°33' E 009°59'0 0.0
2017-Oct-31 06:59N 53°33' E 009°59'0 0.0
2017-Oct-31 06:29N 53°33' E 009°59'0 0.0
2017-Oct-31 05:59N 53°33' E 009°59'0 0.0
2017-Oct-31 05:29N 53°33' E 009°59'0 0.0
2017-Oct-31 04:59N 53°33' E 009°59'0 0.0
2017-Oct-31 04:29N 53°33' E 009°59'0 0.0
2017-Oct-31 03:59N 53°33' E 009°59'0 0.0
2017-Oct-31 03:29N 53°33' E 009°59'0 0.0
2017-Oct-31 02:59N 53°33' E 009°59'0 0.0
2017-Oct-31 02:29N 53°33' E 009°59'0 0.0
2017-Oct-31 01:59N 53°33' E 009°59'0 0.0
2017-Oct-31 01:29N 53°33' E 009°59'0 0.0
2017-Oct-31 00:59N 53°33' E 009°59'0 0.0
2017-Oct-31 00:29N 53°33' E 009°59'0 0.0
2017-Oct-30 23:59N 53°33' E 009°59'0 0.0
2017-Oct-30 23:26N 53°33' E 009°59'0 0.0
2017-Oct-30 22:59N 53°33' E 009°59'0 0.0
2017-Oct-30 22:29N 53°33' E 009°59'0 0.0
2017-Oct-30 21:59N 53°33' E 009°59'0 0.0
2017-Oct-30 21:29N 53°33' E 009°59'0 0.0
2017-Oct-30 21:00N 53°33' E 009°59'0 0.0
2017-Oct-30 20:29N 53°33' E 009°59'0 0.0
2017-Oct-30 19:59N 53°33' E 009°59'0 0.0
2017-Oct-30 19:29N 53°33' E 009°59'0 0.0
2017-Oct-30 18:59N 53°33' E 009°59'0 0.0
2017-Oct-30 18:30N 53°33' E 009°59'0 0.0
2017-Oct-30 17:59N 53°33' E 009°59'0 0.0
2017-Oct-30 17:29N 53°33' E 009°59'0 0.0
2017-Oct-30 17:00N 53°33' E 009°59'0 0.0
2017-Oct-30 16:29N 53°33' E 009°59'0 0.0
2017-Oct-30 16:00N 53°33' E 009°59'0 0.0
2017-Oct-30 15:30N 53°33' E 009°59'0 0.0
2017-Oct-30 14:59N 53°33' E 009°59'0 0.0
2017-Oct-30 13:59N 53°33' E 009°59'0 0.0
2017-Oct-30 13:29N 53°33' E 009°59'0 0.0
2017-Oct-30 13:00N 53°33' E 009°59'0 0.0
2017-Oct-30 12:30N 53°33' E 009°59'0 0.0
2017-Oct-30 12:00N 53°33' E 009°59'0 0.0
2017-Oct-30 11:30N 53°33' E 009°59'0 0.0
2017-Oct-30 11:00N 53°33' E 009°59'0 0.0
2017-Oct-30 10:30N 53°33' E 009°59'0 0.0
2017-Oct-30 09:59N 53°33' E 009°59'0 0.0
2017-Oct-30 09:29N 53°33' E 009°59'0 0.0
2017-Oct-30 09:00N 53°33' E 009°59'  

Dump ship's entire track history